createdAt,value
2023-04-07T00:01:23.556Z,7.90
2023-04-07T00:03:44.980Z,7.77
2023-04-07T00:06:06.220Z,8.57
2023-04-07T00:08:27.661Z,8.57
2023-04-07T00:10:50.121Z,8.80
2023-04-07T00:13:11.184Z,10.17
2023-04-07T00:15:32.460Z,8.30
2023-04-07T00:17:53.656Z,8.70
2023-04-07T00:20:14.829Z,8.73
2023-04-07T00:22:36.331Z,9.13
2023-04-07T00:24:57.665Z,8.90
2023-04-07T00:27:20.423Z,10.33
2023-04-07T00:29:43.692Z,9.83
2023-04-07T00:32:04.977Z,9.50
2023-04-07T00:34:26.497Z,9.80
2023-04-07T00:36:52.294Z,9.47
2023-04-07T00:39:13.986Z,9.97
2023-04-07T00:41:35.219Z,9.53
2023-04-07T00:43:57.637Z,9.30
2023-04-07T00:46:19.236Z,9.00
2023-04-07T00:48:40.529Z,9.60
2023-04-07T00:51:02.010Z,10.17
2023-04-07T00:53:23.379Z,10.93
2023-04-07T00:55:44.378Z,9.60
2023-04-07T00:58:05.865Z,9.83
2023-04-07T01:00:28.992Z,9.27
2023-04-07T01:02:53.753Z,10.17
2023-04-07T01:05:17.983Z,9.63
2023-04-07T01:07:41.586Z,10.73
2023-04-07T01:10:04.403Z,9.83
2023-04-07T01:12:30.100Z,9.63
2023-04-07T01:14:52.595Z,9.63
2023-04-07T01:17:16.189Z,10.37
2023-04-07T01:19:38.597Z,10.07
2023-04-07T01:22:00.105Z,9.80
2023-04-07T01:24:30.011Z,10.23
2023-04-07T01:26:52.158Z,10.80
2023-04-07T01:29:32.354Z,9.43
2023-04-07T01:31:55.985Z,9.70
2023-04-07T01:34:17.923Z,10.50
2023-04-07T01:36:39.397Z,10.47
2023-04-07T01:39:01.143Z,9.80
2023-04-07T01:41:23.351Z,9.73
2023-04-07T01:43:45.202Z,10.10
2023-04-07T01:46:07.698Z,10.20
2023-04-07T01:48:30.403Z,10.17
2023-04-07T01:50:52.312Z,10.03
2023-04-07T01:53:13.753Z,10.13
2023-04-07T01:55:35.421Z,10.60
2023-04-07T01:57:56.719Z,10.27
2023-04-07T02:00:18.243Z,10.20
2023-04-07T02:02:45.054Z,10.77
2023-04-07T02:05:09.442Z,11.17
2023-04-07T02:07:32.802Z,9.27
2023-04-07T02:09:55.438Z,11.47
2023-04-07T02:12:19.910Z,10.83
2023-04-07T02:14:41.609Z,11.20
2023-04-07T02:17:03.736Z,11.03
2023-04-07T02:19:25.605Z,11.10
2023-04-07T02:21:48.469Z,11.73
2023-04-07T02:24:09.638Z,12.27
2023-04-07T02:26:35.409Z,11.93
2023-04-07T02:28:57.326Z,11.23
2023-04-07T02:31:18.598Z,12.47
2023-04-07T02:33:39.614Z,11.73
2023-04-07T02:36:01.198Z,12.13
2023-04-07T02:38:23.930Z,11.53
2023-04-07T02:40:44.987Z,10.80
2023-04-07T02:43:06.409Z,11.37
2023-04-07T02:45:27.723Z,11.17
2023-04-07T02:47:48.973Z,11.47
2023-04-07T02:50:10.858Z,11.87
2023-04-07T02:52:32.440Z,11.83
2023-04-07T02:54:54.929Z,11.23
2023-04-07T02:57:16.163Z,11.83
2023-04-07T02:59:37.880Z,11.37
2023-04-07T03:01:59.100Z,11.27
2023-04-07T03:04:20.668Z,10.77
2023-04-07T03:06:42.575Z,11.27
2023-04-07T03:09:03.664Z,10.50
2023-04-07T03:11:26.401Z,11.37
2023-04-07T03:13:47.693Z,10.43
2023-04-07T03:16:08.901Z,10.40
2023-04-07T03:18:30.488Z,11.30
2023-04-07T03:20:52.862Z,11.47
2023-04-07T03:23:13.833Z,10.77
2023-04-07T03:25:35.088Z,13.20
2023-04-07T03:27:57.780Z,11.23
2023-04-07T03:30:19.070Z,11.37
2023-04-07T03:32:40.783Z,10.43
2023-04-07T03:35:01.980Z,11.83
2023-04-07T03:37:23.228Z,12.03
2023-04-07T03:39:44.153Z,11.70
2023-04-07T03:42:05.546Z,11.97
2023-04-07T03:44:28.636Z,12.57
2023-04-07T03:46:50.670Z,12.60
2023-04-07T03:49:12.023Z,14.43
2023-04-07T03:51:33.984Z,14.27
2023-04-07T03:53:55.166Z,14.53
2023-04-07T03:56:20.061Z,13.33
2023-04-07T03:58:42.869Z,13.40
2023-04-07T04:01:05.895Z,14.27
2023-04-07T04:03:27.732Z,13.80
2023-04-07T04:05:49.158Z,13.80
2023-04-07T04:08:10.440Z,14.17
2023-04-07T04:10:31.906Z,16.50
2023-04-07T04:12:53.628Z,14.30
2023-04-07T04:15:14.606Z,15.70
2023-04-07T04:17:38.022Z,13.83
2023-04-07T04:19:59.053Z,15.33
2023-04-07T04:22:20.324Z,14.77
2023-04-07T04:24:42.594Z,15.97
2023-04-07T04:27:03.828Z,15.17
2023-04-07T04:29:24.886Z,15.50
2023-04-07T04:31:46.417Z,14.63
2023-04-07T04:34:08.942Z,15.00
2023-04-07T04:36:29.949Z,15.50
2023-04-07T04:38:51.317Z,15.80
2023-04-07T04:41:12.613Z,16.10
2023-04-07T04:43:34.226Z,16.23
2023-04-07T04:45:56.229Z,16.47
2023-04-07T04:48:17.843Z,16.03
2023-04-07T04:50:40.440Z,15.60
2023-04-07T04:53:01.998Z,18.77
2023-04-07T04:55:23.085Z,17.33
2023-04-07T04:57:44.352Z,17.50
2023-04-07T05:00:06.428Z,19.67
2023-04-07T05:02:28.354Z,16.93
2023-04-07T05:04:49.783Z,16.20
2023-04-07T05:07:12.434Z,17.63
2023-04-07T05:09:33.620Z,15.97
2023-04-07T05:11:55.131Z,19.57
2023-04-07T05:14:16.810Z,15.07
2023-04-07T05:16:38.596Z,16.50
2023-04-07T05:19:00.373Z,16.23
2023-04-07T05:21:22.500Z,15.23
2023-04-07T05:23:45.087Z,15.60
2023-04-07T05:26:06.590Z,15.70
2023-04-07T05:28:28.112Z,15.50
2023-04-07T05:30:49.088Z,14.93
2023-04-07T05:33:11.329Z,16.57
2023-04-07T05:35:32.438Z,16.33
2023-04-07T05:37:53.914Z,15.37
2023-04-07T05:40:16.640Z,15.67
2023-04-07T05:42:37.952Z,15.57
2023-04-07T05:44:59.210Z,15.57
2023-04-07T05:47:20.313Z,15.47
2023-04-07T05:49:47.351Z,14.33
2023-04-07T05:52:11.238Z,15.17
2023-04-07T05:54:32.582Z,15.60
2023-04-07T05:56:57.409Z,15.43
2023-04-07T05:59:19.218Z,15.73
2023-04-07T06:01:40.441Z,17.30
2023-04-07T06:04:03.502Z,17.63
2023-04-07T06:06:24.689Z,15.77
2023-04-07T06:08:46.195Z,17.80
2023-04-07T06:11:07.687Z,16.27
2023-04-07T06:13:30.404Z,15.70
2023-04-07T06:15:51.629Z,16.10
2023-04-07T06:18:12.621Z,16.63
2023-04-07T06:20:34.001Z,17.20
2023-04-07T06:22:55.466Z,18.77
2023-04-07T06:25:16.456Z,17.93
2023-04-07T06:27:37.660Z,17.60
2023-04-07T06:30:00.349Z,17.27
2023-04-07T06:32:21.478Z,15.43
2023-04-07T06:34:42.553Z,15.97
2023-04-07T06:37:05.517Z,17.00
2023-04-07T06:39:27.815Z,16.73
2023-04-07T06:41:49.162Z,16.27
2023-04-07T06:44:10.752Z,17.80
2023-04-07T06:46:33.344Z,15.93
2023-04-07T06:48:54.688Z,14.93
2023-04-07T06:51:16.201Z,15.27
2023-04-07T06:53:37.528Z,16.03
2023-04-07T06:56:05.793Z,15.53
2023-04-07T06:58:27.212Z,15.20
2023-04-07T07:00:48.558Z,15.03
2023-04-07T07:03:11.494Z,14.37
2023-04-07T07:05:32.975Z,14.60
2023-04-07T07:07:54.030Z,14.70
2023-04-07T07:10:16.317Z,15.27
2023-04-07T07:12:37.339Z,13.97
2023-04-07T07:14:58.672Z,14.13
2023-04-07T07:17:19.809Z,14.63
2023-04-07T07:19:43.144Z,13.90
2023-04-07T07:22:04.263Z,14.40
2023-04-07T07:24:25.332Z,14.17
2023-04-07T07:26:46.584Z,13.77
2023-04-07T07:29:07.780Z,13.40
2023-04-07T07:31:29.170Z,13.37
2023-04-07T07:33:51.602Z,13.23
2023-04-07T07:36:14.198Z,12.40
2023-04-07T07:38:37.059Z,12.87
2023-04-07T07:40:59.005Z,12.50
2023-04-07T07:43:20.429Z,12.50
2023-04-07T07:45:41.694Z,13.93
2023-04-07T07:48:03.033Z,14.80
2023-04-07T07:50:24.340Z,12.87
2023-04-07T07:52:47.770Z,13.07
2023-04-07T07:55:09.152Z,13.20
2023-04-07T07:57:31.189Z,13.40
2023-04-07T07:59:53.364Z,12.23
2023-04-07T08:02:14.664Z,12.27
2023-04-07T08:04:36.790Z,12.33
2023-04-07T08:06:58.873Z,12.33
2023-04-07T08:09:22.148Z,13.10
2023-04-07T08:11:43.339Z,12.63
2023-04-07T08:14:04.555Z,12.33
2023-04-07T08:16:27.034Z,11.83
2023-04-07T08:18:48.911Z,11.40
2023-04-07T08:21:10.367Z,11.43
2023-04-07T08:23:31.632Z,11.30
2023-04-07T08:25:54.253Z,10.87
2023-04-07T08:28:15.913Z,11.80
2023-04-07T08:30:38.129Z,11.47
2023-04-07T08:32:59.685Z,11.47
2023-04-07T08:35:21.366Z,10.63
2023-04-07T08:37:44.131Z,10.10
2023-04-07T08:40:05.856Z,8.37
2023-04-07T08:42:28.838Z,8.83
2023-04-07T08:44:51.332Z,7.10
2023-04-07T08:47:12.575Z,7.83
2023-04-07T08:49:34.166Z,8.90
2023-04-07T08:51:55.983Z,8.63
2023-04-07T08:54:18.931Z,8.70
2023-04-07T08:56:41.368Z,8.73
2023-04-07T08:59:05.050Z,8.40
2023-04-07T09:01:26.703Z,8.93
2023-04-07T09:03:49.634Z,8.10
2023-04-07T09:06:12.000Z,9.70
2023-04-07T09:08:32.977Z,7.70
2023-04-07T09:10:54.753Z,8.60
2023-04-07T09:13:16.099Z,8.07
2023-04-07T09:15:39.056Z,8.87
2023-04-07T09:18:00.348Z,7.93
2023-04-07T09:20:22.030Z,10.20
2023-04-07T09:22:45.525Z,8.27
2023-04-07T09:25:14.658Z,8.27
2023-04-07T09:27:35.896Z,8.03
2023-04-07T09:30:11.623Z,7.60
2023-04-07T09:32:39.237Z,7.47
2023-04-07T09:35:01.146Z,8.17
2023-04-07T09:37:23.008Z,7.00
2023-04-07T09:39:50.083Z,7.00
2023-04-07T09:42:11.577Z,7.57
2023-04-07T09:44:40.311Z,7.33
2023-04-07T09:47:01.779Z,7.23
2023-04-07T09:49:24.772Z,6.80
2023-04-07T09:51:53.639Z,7.40
2023-04-07T09:54:15.058Z,6.97
2023-04-07T09:56:37.091Z,6.93
2023-04-07T09:58:58.718Z,6.43
2023-04-07T10:01:20.113Z,6.90
2023-04-07T10:03:41.603Z,9.23
2023-04-07T10:06:05.517Z,7.93
2023-04-07T10:08:26.561Z,7.10
2023-04-07T10:10:49.768Z,6.83
2023-04-07T10:13:11.755Z,6.80
2023-04-07T10:15:33.482Z,8.37
2023-04-07T10:17:57.000Z,6.87
2023-04-07T10:20:20.772Z,6.77
2023-04-07T10:22:44.182Z,5.73
2023-04-07T10:25:08.051Z,5.90
2023-04-07T10:27:32.214Z,6.20
2023-04-07T10:29:54.190Z,5.97
2023-04-07T10:32:15.714Z,6.53
2023-04-07T10:34:53.387Z,6.30
2023-04-07T10:37:14.770Z,5.13
2023-04-07T10:39:37.855Z,4.47
2023-04-07T10:41:59.004Z,5.00
2023-04-07T10:44:39.163Z,5.67
2023-04-07T10:47:06.915Z,4.57
2023-04-07T10:49:28.059Z,5.93
2023-04-07T10:52:17.317Z,5.43
2023-04-07T10:54:40.005Z,4.67
2023-04-07T10:57:12.054Z,4.73
2023-04-07T10:59:37.048Z,4.50
2023-04-07T11:02:26.125Z,4.50
2023-04-07T11:04:47.934Z,5.37
2023-04-07T11:07:09.404Z,4.70
2023-04-07T11:09:30.762Z,5.40
2023-04-07T11:11:53.564Z,4.63
2023-04-07T11:14:27.004Z,5.00
2023-04-07T11:16:48.451Z,5.97
2023-04-07T11:19:09.924Z,5.03
2023-04-07T11:21:31.709Z,4.03
2023-04-07T11:23:53.630Z,4.50
2023-04-07T11:26:15.769Z,5.27
2023-04-07T11:28:46.154Z,5.10
2023-04-07T11:31:07.368Z,5.00
2023-04-07T11:33:29.781Z,5.10
2023-04-07T11:35:55.380Z,6.30
2023-04-07T11:38:16.590Z,5.17
2023-04-07T11:40:38.650Z,5.77
2023-04-07T11:42:59.705Z,5.10
2023-04-07T11:45:22.332Z,6.10
2023-04-07T11:47:43.724Z,5.07
2023-04-07T11:50:05.034Z,5.83
2023-04-07T11:52:26.630Z,5.97
2023-04-07T11:54:49.964Z,5.47
2023-04-07T11:57:12.754Z,5.10
2023-04-07T11:59:33.989Z,6.50
2023-04-07T12:01:58.141Z,5.20
2023-04-07T12:04:19.880Z,4.90
2023-04-07T12:06:42.536Z,5.00
2023-04-07T12:09:04.111Z,4.87
2023-04-07T12:11:25.740Z,5.00
2023-04-07T12:13:47.387Z,5.07
2023-04-07T12:16:08.972Z,5.43
2023-04-07T12:18:31.823Z,5.13
2023-04-07T12:20:52.946Z,4.70
2023-04-07T12:23:14.252Z,4.50
2023-04-07T12:25:35.680Z,6.50
2023-04-07T12:27:56.945Z,4.30
2023-04-07T12:30:18.136Z,4.33
2023-04-07T12:32:39.561Z,6.83
2023-04-07T12:35:01.942Z,5.00
2023-04-07T12:37:23.103Z,4.70
2023-04-07T12:39:44.285Z,4.20
2023-04-07T12:42:05.545Z,4.40
2023-04-07T12:44:26.798Z,3.93
2023-04-07T12:46:48.079Z,5.50
2023-04-07T12:49:09.258Z,3.83
2023-04-07T12:51:33.428Z,4.83
2023-04-07T12:53:55.003Z,2.80
2023-04-07T12:56:16.176Z,2.00
2023-04-07T12:58:37.537Z,2.13
2023-04-07T13:01:00.780Z,3.50
2023-04-07T13:03:22.143Z,5.10
2023-04-07T13:05:43.108Z,5.83
2023-04-07T13:08:06.412Z,5.33
2023-04-07T13:10:27.402Z,7.83
2023-04-07T13:12:49.061Z,7.37
2023-04-07T13:15:10.551Z,8.03
2023-04-07T13:17:31.777Z,8.07
2023-04-07T13:19:53.287Z,8.07
2023-04-07T13:22:18.244Z,6.63
2023-04-07T13:24:44.085Z,8.37
2023-04-07T13:27:05.139Z,7.23
2023-04-07T13:29:26.865Z,8.77
2023-04-07T13:31:48.529Z,6.93
2023-04-07T13:34:09.690Z,8.23
2023-04-07T13:36:31.183Z,7.10
2023-04-07T13:38:52.312Z,6.40
2023-04-07T13:41:15.115Z,5.90
2023-04-07T13:43:36.630Z,6.23
2023-04-07T13:45:57.782Z,7.03
2023-04-07T13:48:19.160Z,5.83
2023-04-07T13:50:40.906Z,7.40
2023-04-07T13:53:02.097Z,6.20
2023-04-07T13:55:23.412Z,6.17
2023-04-07T13:57:46.443Z,6.30
2023-04-07T14:00:08.333Z,5.57
2023-04-07T14:02:30.964Z,6.30
2023-04-07T14:04:52.869Z,7.33
2023-04-07T14:07:14.299Z,6.00
2023-04-07T14:09:35.426Z,5.40
2023-04-07T14:11:57.329Z,5.37
2023-04-07T14:14:19.809Z,5.33
2023-04-07T14:16:41.504Z,5.20
2023-04-07T14:19:02.629Z,6.17
2023-04-07T14:21:24.331Z,6.93
2023-04-07T14:23:45.553Z,6.60
2023-04-07T14:26:06.850Z,5.27
2023-04-07T14:28:28.771Z,5.70
2023-04-07T14:30:51.810Z,6.17
2023-04-07T14:33:12.961Z,7.10
2023-04-07T14:35:34.210Z,5.80
2023-04-07T14:37:55.522Z,5.63
2023-04-07T14:40:16.962Z,6.47
2023-04-07T14:42:38.358Z,4.97
2023-04-07T14:45:00.163Z,6.10
2023-04-07T14:47:22.694Z,6.73
2023-04-07T14:49:44.138Z,6.50
2023-04-07T14:52:05.508Z,6.50
2023-04-07T14:54:26.725Z,5.80
2023-04-07T14:56:48.179Z,4.90
2023-04-07T14:59:09.535Z,4.80
2023-04-07T15:01:31.608Z,5.77
2023-04-07T15:03:54.448Z,4.90
2023-04-07T15:06:16.824Z,5.67
2023-04-07T15:08:38.023Z,8.40
2023-04-07T15:10:59.193Z,4.47
2023-04-07T15:13:20.267Z,6.23
2023-04-07T15:15:41.638Z,3.90
2023-04-07T15:18:04.106Z,4.33
2023-04-07T15:20:27.106Z,3.83
2023-04-07T15:22:48.281Z,3.80
2023-04-07T15:25:09.674Z,3.87
2023-04-07T15:27:30.643Z,3.77
2023-04-07T15:29:51.876Z,3.60
2023-04-07T15:32:13.164Z,4.20
2023-04-07T15:34:34.599Z,5.23
2023-04-07T15:36:57.218Z,4.40
2023-04-07T15:39:18.617Z,3.80
2023-04-07T15:41:39.759Z,4.10
2023-04-07T15:44:01.496Z,3.63
2023-04-07T15:46:22.727Z,4.03
2023-04-07T15:48:43.976Z,3.80
2023-04-07T15:51:05.332Z,3.90
2023-04-07T15:53:28.487Z,3.83
2023-04-07T15:55:49.522Z,3.53
2023-04-07T15:58:10.830Z,3.50
2023-04-07T16:00:34.204Z,4.57
2023-04-07T16:02:55.590Z,4.77
2023-04-07T16:05:16.952Z,3.60
2023-04-07T16:07:38.264Z,3.87
2023-04-07T16:10:01.034Z,3.63
2023-04-07T16:12:22.526Z,3.83
2023-04-07T16:14:43.971Z,3.93
2023-04-07T16:17:05.371Z,3.77
2023-04-07T16:19:27.182Z,4.30
2023-04-07T16:21:48.447Z,6.57
2023-04-07T16:24:09.650Z,3.67
2023-04-07T16:26:32.405Z,3.43
2023-04-07T16:28:53.867Z,4.03
2023-04-07T16:31:15.004Z,4.83
2023-04-07T16:33:36.675Z,3.53
2023-04-07T16:35:58.068Z,6.17
2023-04-07T16:38:19.516Z,4.33
2023-04-07T16:40:40.980Z,4.87
2023-04-07T16:43:04.404Z,4.60
2023-04-07T16:45:25.868Z,4.17
2023-04-07T16:47:47.387Z,4.63
2023-04-07T16:50:09.662Z,4.53
2023-04-07T16:52:31.654Z,4.33
2023-04-07T16:54:53.093Z,4.63
2023-04-07T16:57:14.183Z,4.03
2023-04-07T16:59:36.943Z,4.50
2023-04-07T17:01:57.986Z,4.27
2023-04-07T17:04:19.246Z,4.50
2023-04-07T17:06:40.289Z,6.23
2023-04-07T17:09:01.626Z,4.90
2023-04-07T17:11:22.845Z,5.20
2023-04-07T17:13:44.113Z,6.20
2023-04-07T17:16:07.203Z,7.47
2023-04-07T17:18:28.834Z,6.97
2023-04-07T17:20:49.785Z,6.10
2023-04-07T17:23:10.777Z,6.13
2023-04-07T17:25:32.348Z,6.27
2023-04-07T17:27:55.010Z,6.10
2023-04-07T17:30:16.061Z,7.83
2023-04-07T17:32:38.942Z,6.27
2023-04-07T17:34:59.766Z,8.33
2023-04-07T17:37:21.134Z,7.07
2023-04-07T17:39:42.373Z,6.30
2023-04-07T17:42:03.762Z,7.37
2023-04-07T17:44:24.967Z,7.40
2023-04-07T17:46:46.731Z,10.23
2023-04-07T17:49:09.645Z,9.83
2023-04-07T17:51:30.940Z,8.20
2023-04-07T17:53:52.272Z,6.70
2023-04-07T17:56:13.720Z,7.73
2023-04-07T17:58:35.148Z,7.73
2023-04-07T18:00:56.200Z,6.87
2023-04-07T18:03:17.756Z,7.33
2023-04-07T18:05:43.708Z,9.13
2023-04-07T18:08:05.348Z,7.50
2023-04-07T18:10:28.034Z,9.23
2023-04-07T18:12:49.185Z,7.30
2023-04-07T18:15:10.830Z,8.27
2023-04-07T18:17:32.389Z,8.47
2023-04-07T18:19:53.740Z,8.97
2023-04-07T18:22:17.988Z,9.03
2023-04-07T18:24:39.141Z,9.97
2023-04-07T18:27:01.355Z,10.80
2023-04-07T18:29:22.950Z,10.23
2023-04-07T18:31:44.491Z,8.27
2023-04-07T18:34:07.457Z,9.03
2023-04-07T18:36:28.628Z,7.83
2023-04-07T18:38:51.360Z,9.00
2023-04-07T18:41:12.689Z,7.00
2023-04-07T18:43:33.763Z,7.50
2023-04-07T18:45:55.238Z,7.07
2023-04-07T18:48:16.543Z,7.87
2023-04-07T18:50:37.596Z,7.40
2023-04-07T18:52:59.151Z,6.70
2023-04-07T18:55:22.218Z,7.63
2023-04-07T18:57:43.649Z,9.47
2023-04-07T19:00:05.622Z,7.03
2023-04-07T19:02:27.639Z,8.00
2023-04-07T19:04:49.368Z,6.70
2023-04-07T19:07:10.216Z,5.57
2023-04-07T19:09:31.604Z,7.33
2023-04-07T19:11:54.293Z,7.57
2023-04-07T19:14:15.419Z,10.23
2023-04-07T19:16:36.971Z,7.80
2023-04-07T19:18:58.083Z,9.23
2023-04-07T19:21:19.616Z,7.90
2023-04-07T19:23:42.181Z,7.47
2023-04-07T19:26:05.152Z,8.00
2023-04-07T19:28:28.872Z,8.07
2023-04-07T19:30:50.367Z,9.50
2023-04-07T19:33:11.877Z,7.80
2023-04-07T19:35:33.258Z,8.00
2023-04-07T19:37:54.659Z,8.00
2023-04-07T19:40:15.625Z,8.87
2023-04-07T19:42:39.119Z,9.83
2023-04-07T19:45:02.366Z,9.33
2023-04-07T19:47:24.184Z,9.50
2023-04-07T19:49:46.060Z,9.53
2023-04-07T19:52:07.543Z,9.30
2023-04-07T19:54:29.043Z,9.83
2023-04-07T19:56:50.313Z,10.07
2023-04-07T19:59:11.617Z,8.30
2023-04-07T20:01:34.164Z,8.53
2023-04-07T20:03:55.757Z,9.80
2023-04-07T20:06:18.919Z,9.43
2023-04-07T20:08:40.261Z,10.40
2023-04-07T20:11:01.550Z,10.67
2023-04-07T20:13:23.846Z,9.40
2023-04-07T20:15:46.729Z,9.27
2023-04-07T20:18:09.266Z,8.10
2023-04-07T20:20:30.960Z,8.67
2023-04-07T20:22:52.449Z,8.50
2023-04-07T20:25:13.955Z,8.43
2023-04-07T20:27:35.419Z,8.50
2023-04-07T20:29:58.067Z,7.87
2023-04-07T20:32:20.313Z,8.50
2023-04-07T20:34:46.182Z,8.00
2023-04-07T20:37:07.699Z,8.20
2023-04-07T20:39:28.913Z,8.50
2023-04-07T20:41:51.595Z,8.53
2023-04-07T20:44:13.327Z,8.70
2023-04-07T20:46:34.660Z,8.00
2023-04-07T20:48:56.708Z,8.60
2023-04-07T20:51:19.169Z,8.87
2023-04-07T20:53:40.614Z,8.57
2023-04-07T20:56:02.858Z,7.90
2023-04-07T20:58:24.704Z,8.80
2023-04-07T21:00:45.917Z,8.90
2023-04-07T21:03:07.804Z,8.00
2023-04-07T21:05:29.303Z,8.20
2023-04-07T21:07:52.032Z,8.03
2023-04-07T21:10:14.730Z,8.10
2023-04-07T21:12:37.069Z,8.53
2023-04-07T21:14:58.529Z,8.10
2023-04-07T21:17:20.433Z,7.50
2023-04-07T21:19:42.217Z,7.47
2023-04-07T21:22:04.738Z,7.33
2023-04-07T21:24:27.346Z,7.50
2023-04-07T21:26:48.476Z,7.43
2023-04-07T21:29:09.721Z,7.53
2023-04-07T21:31:31.133Z,7.80
2023-04-07T21:33:52.904Z,7.67
2023-04-07T21:36:14.487Z,7.40
2023-04-07T21:38:35.835Z,6.80
2023-04-07T21:40:58.582Z,7.37
2023-04-07T21:43:19.994Z,7.47
2023-04-07T21:45:41.519Z,8.10
2023-04-07T21:48:03.177Z,7.53
2023-04-07T21:50:25.485Z,7.97
2023-04-07T21:52:50.584Z,7.13
2023-04-07T21:55:12.008Z,7.73
2023-04-07T21:57:34.578Z,7.57
2023-04-07T21:59:56.138Z,7.83
2023-04-07T22:02:17.799Z,7.50
2023-04-07T22:04:39.162Z,7.37
2023-04-07T22:07:00.829Z,7.03
2023-04-07T22:09:22.636Z,6.83
2023-04-07T22:11:44.378Z,6.77
2023-04-07T22:14:07.526Z,7.60
2023-04-07T22:16:28.969Z,6.67
2023-04-07T22:18:50.614Z,8.07
2023-04-07T22:21:11.899Z,7.13
2023-04-07T22:23:35.059Z,7.97
2023-04-07T22:25:58.489Z,7.93
2023-04-07T22:28:19.648Z,7.80
2023-04-07T22:30:42.678Z,7.97
2023-04-07T22:33:04.502Z,7.87
2023-04-07T22:35:25.765Z,7.93
2023-04-07T22:37:47.142Z,7.70
2023-04-07T22:40:09.217Z,8.10
2023-04-07T22:42:30.375Z,7.93
2023-04-07T22:44:51.763Z,8.07
2023-04-07T22:47:14.416Z,8.13
2023-04-07T22:49:35.580Z,8.90
2023-04-07T22:51:57.251Z,8.80
2023-04-07T22:54:19.129Z,9.33
2023-04-07T22:56:40.120Z,10.00
2023-04-07T22:59:05.371Z,9.17
2023-04-07T23:01:27.688Z,8.60
2023-04-07T23:03:51.318Z,9.83
2023-04-07T23:06:12.931Z,10.47
2023-04-07T23:08:34.469Z,10.60
2023-04-07T23:10:55.386Z,10.10
2023-04-07T23:13:18.791Z,10.80
2023-04-07T23:15:40.168Z,10.53
2023-04-07T23:18:01.716Z,9.80
2023-04-07T23:20:24.261Z,10.67
2023-04-07T23:22:45.759Z,10.30
2023-04-07T23:25:07.753Z,10.33
2023-04-07T23:27:29.021Z,10.20
2023-04-07T23:29:50.835Z,10.30
2023-04-07T23:32:12.725Z,10.20
2023-04-07T23:34:33.974Z,11.10
2023-04-07T23:36:56.697Z,11.33
2023-04-07T23:39:17.777Z,11.40
2023-04-07T23:41:39.689Z,11.63
2023-04-07T23:44:00.890Z,12.90
2023-04-07T23:46:22.504Z,11.50
2023-04-07T23:48:44.099Z,12.30
2023-04-07T23:51:05.651Z,12.77
2023-04-07T23:53:28.724Z,11.33
2023-04-07T23:55:50.538Z,12.27
2023-04-07T23:58:11.925Z,11.10
